Time;durP1;ratioP1;P1;durP2;ratioP2;P2;SDS_P1;SDS_P2;PMS_P1;PMS_P2;Temp;Humidity;BMP_temperature;BMP_pressure;BME280_temperature;BME280_humidity;BME280_pressure;Samples;Min_cycle;Max_cycle;Signal;HPM_P1;HPM_P2
2022/08/01 00:01:12;;;;;;;8.93;2.75;;;;;;;21.03;67.03;99398.25;5074207;28;20540;-57
2022/08/01 00:03:37;;;;;;;6.63;2.72;;;;;;;20.71;68.35;99401.94;5079843;28;20423;-57
2022/08/01 00:06:03;;;;;;;6.70;2.50;;;;;;;20.75;68.48;99392.06;5074357;28;20027;-56
2022/08/01 00:08:28;;;;;;;6.28;2.72;;;;;;;20.67;68.66;99391.69;5074067;28;20047;-57
2022/08/01 00:10:53;;;;;;;5.70;2.70;;;;;;;20.77;68.06;99390.66;5079976;28;20028;-56
2022/08/01 00:13:19;;;;;;;5.22;2.55;;;;;;;20.63;68.76;99389.88;5073836;28;20024;-57
2022/08/01 00:15:44;;;;;;;8.70;2.90;;;;;;;20.70;68.18;99379.38;5074256;28;20028;-56
2022/08/01 00:18:10;;;;;;;4.40;2.45;;;;;;;20.52;69.14;99382.97;5073980;28;20029;-57
2022/08/01 00:20:35;;;;;;;6.28;2.58;;;;;;;20.41;69.63;99388.63;5073812;28;20474;-57
2022/08/01 00:23:02;;;;;;;7.78;2.60;;;;;;;20.47;69.14;99381.19;5074210;28;20488;-56
2022/08/01 00:25:28;;;;;;;3.40;2.25;;;;;;;20.18;70.51;99373.34;5072554;28;20463;-56
2022/08/01 00:27:54;;;;;;;6.15;2.67;;;;;;;20.36;69.72;99380.56;5073654;28;20031;-57
2022/08/01 00:30:19;;;;;;;8.18;2.50;;;;;;;20.38;69.62;99377.56;5073712;28;20035;-55
2022/08/01 00:32:44;;;;;;;6.53;2.60;;;;;;;20.30;69.61;99381.81;5073151;28;20399;-56
2022/08/01 00:35:10;;;;;;;9.57;2.38;;;;;;;20.36;69.49;99391.47;5073483;28;20055;-56
2022/08/01 00:37:36;;;;;;;4.47;2.42;;;;;;;20.25;70.13;99392.78;5077189;28;20039;-56
2022/08/01 00:40:01;;;;;;;4.35;2.33;;;;;;;20.04;70.79;99387.75;5072490;28;20020;-57
2022/08/01 00:42:26;;;;;;;4.75;2.72;;;;;;;19.81;71.35;99386.00;5073875;28;20033;-57
2022/08/01 00:44:52;;;;;;;8.80;3.05;;;;;;;20.09;70.37;99386.03;5073402;28;20477;-57
2022/08/01 00:47:17;;;;;;;6.25;2.80;;;;;;;20.29;69.09;99380.19;5071622;28;20043;-56
2022/08/01 00:49:43;;;;;;;5.05;2.70;;;;;;;19.96;70.86;99383.00;5072992;28;20025;-57
2022/08/01 00:52:08;;;;;;;4.57;2.72;;;;;;;20.27;69.51;99387.88;5073183;28;20031;-56
2022/08/01 00:54:34;;;;;;;5.25;2.97;;;;;;;20.00;70.07;99394.91;5073397;28;20025;-55
2022/08/01 00:56:59;;;;;;;8.15;2.75;;;;;;;20.00;70.33;99388.66;5073169;28;20035;-55
2022/08/01 00:59:25;;;;;;;4.15;2.40;;;;;;;20.09;70.31;99388.75;5072890;28;20036;-57
2022/08/01 01:01:50;;;;;;;5.65;2.70;;;;;;;19.73;71.37;99387.50;5073080;28;20478;-56
2022/08/01 01:04:16;;;;;;;5.53;2.65;;;;;;;19.75;71.36;99392.66;5072331;28;20040;-57
2022/08/01 01:07:00;;;;;;;5.50;2.72;;;;;;;19.86;71.35;99380.47;5073166;28;20444;-56
2022/08/01 01:09:50;;;;;;;4.05;2.53;;;;;;;19.67;71.66;99388.72;5072051;28;20135;-57
2022/08/01 01:12:19;;;;;;;4.97;2.80;;;;;;;20.03;70.68;99377.97;5073071;28;20119;-56
2022/08/01 01:14:47;;;;;;;4.88;2.63;;;;;;;19.93;70.49;99389.03;5071448;28;20387;-56
2022/08/01 01:17:17;;;;;;;4.90;2.50;;;;;;;19.89;70.96;99387.22;5071325;28;20028;-57
2022/08/01 01:19:47;;;;;;;5.88;2.78;;;;;;;19.77;71.68;99391.25;5073007;28;20032;-56
2022/08/01 01:22:23;;;;;;;4.97;2.60;;;;;;;19.99;70.75;99393.28;5072937;28;20028;-56
2022/08/01 01:24:57;;;;;;;6.90;2.72;;;;;;;19.91;70.91;99383.09;5055225;28;20032;-56
2022/08/01 01:27:45;;;;;;;8.75;2.70;;;;;;;19.65;71.88;99388.16;5071370;28;20052;-55
2022/08/01 01:30:10;;;;;;;5.55;2.38;;;;;;;19.53;72.90;99383.19;5071545;28;20374;-55
2022/08/01 01:32:40;;;;;;;6.38;2.53;;;;;;;19.43;73.34;99386.06;5072194;28;20024;-56
2022/08/01 01:35:06;;;;;;;;;;;;;;;19.51;72.64;99384.59;5071832;28;20021;-56
2022/08/01 01:37:32;;;;;;;4.18;2.55;;;;;;;19.54;72.80;99392.16;5084005;28;20006;-56
2022/08/01 01:39:57;;;;;;;5.32;2.60;;;;;;;19.48;73.57;99383.28;5072349;28;20031;-55
2022/08/01 01:42:22;;;;;;;5.18;2.75;;;;;;;19.72;72.28;99387.78;5071762;28;20119;-55
2022/08/01 01:44:48;;;;;;;4.88;2.40;;;;;;;20.18;70.96;99384.22;5071672;28;20070;-56
2022/08/01 01:47:13;;;;;;;4.68;2.50;;;;;;;20.43;69.53;99382.91;5059215;28;20033;-56
2022/08/01 01:49:39;;;;;;;3.80;2.22;;;;;;;20.55;68.83;99382.44;5070633;28;20021;-56
2022/08/01 01:52:04;;;;;;;5.38;2.83;;;;;;;20.06;70.88;99381.19;5070721;28;20028;-56
2022/08/01 01:54:37;;;;;;;3.78;2.45;;;;;;;19.95;71.19;99386.84;5070972;28;20035;-56
2022/08/01 01:57:03;;;;;;;5.70;2.60;;;;;;;19.72;72.34;99387.78;5072204;28;20086;-56
2022/08/01 01:59:30;;;;;;;4.28;2.60;;;;;;;19.51;73.03;99382.66;5070156;28;20048;-55
2022/08/01 02:01:57;;;;;;;5.15;2.65;;;;;;;19.28;74.11;99383.63;5037741;28;20032;-56
2022/08/01 02:04:23;;;;;;;5.18;2.58;;;;;;;19.33;74.29;99375.38;5037047;28;20411;-56
2022/08/01 02:06:49;;;;;;;17.73;2.65;;;;;;;19.25;74.55;99384.22;5077798;28;20028;-55
2022/08/01 02:09:16;;;;;;;5.93;2.60;;;;;;;19.27;74.62;99387.41;5070582;28;20028;-56
2022/08/01 02:11:41;;;;;;;6.43;2.85;;;;;;;19.23;74.63;99381.78;5070835;28;20029;-56
2022/08/01 02:14:08;;;;;;;6.50;2.80;;;;;;;19.32;74.09;99380.00;5070961;28;20029;-55
2022/08/01 02:16:36;;;;;;;7.45;2.70;;;;;;;19.50;73.71;99385.72;5074329;28;20111;-55
2022/08/01 02:19:02;;;;;;;5.32;2.88;;;;;;;19.36;74.38;99385.66;5071515;28;20108;-56
2022/08/01 02:21:30;;;;;;;3.65;2.60;;;;;;;19.60;72.91;99386.34;5070556;28;20382;-56
2022/08/01 02:23:57;;;;;;;5.22;3.13;;;;;;;19.78;72.37;99387.41;5071912;28;20492;-56
2022/08/01 02:26:23;;;;;;;3.90;2.42;;;;;;;19.78;72.28;99392.03;5070609;28;20033;-55
2022/08/01 02:28:59;;;;;;;4.60;2.67;;;;;;;19.85;72.01;99392.47;5070676;28;20437;-56
2022/08/01 02:31:24;;;;;;;5.53;2.92;;;;;;;20.06;71.33;99387.44;5071965;28;20119;-56
2022/08/01 02:34:02;;;;;;;5.18;2.95;;;;;;;20.56;69.35;99384.03;5053179;28;20517;-55
2022/08/01 02:36:28;;;;;;;5.05;2.70;;;;;;;20.49;69.02;99384.41;5070607;28;20115;-57
2022/08/01 02:38:53;;;;;;;5.20;2.42;;;;;;;20.62;68.45;99389.06;5052769;28;20484;-56
2022/08/01 02:41:19;;;;;;;7.68;2.90;;;;;;;20.33;69.90;99386.63;5070609;28;20025;-56
2022/08/01 02:43:48;;;;;;;5.03;2.75;;;;;;;20.04;71.42;99389.66;5071847;28;20021;-55
2022/08/01 02:46:17;;;;;;;6.95;2.70;;;;;;;20.26;70.50;99380.78;5070503;28;20588;-56
2022/08/01 02:48:43;;;;;;;4.60;2.47;;;;;;;20.09;70.96;99392.25;5069839;28;20346;-57
2022/08/01 02:51:08;;;;;;;7.47;2.97;;;;;;;20.08;71.21;99387.16;5070048;28;20090;-54
2022/08/01 02:53:36;;;;;;;6.40;3.00;;;;;;;19.88;72.24;99391.06;5071585;28;20035;-57
2022/08/01 02:56:02;;;;;;;5.25;2.75;;;;;;;19.77;72.83;99379.56;5070302;28;20113;-55
2022/08/01 02:58:28;;;;;;;4.80;3.15;;;;;;;19.79;73.04;99377.31;5070267;28;20085;-55
2022/08/01 03:00:53;;;;;;;5.35;2.90;;;;;;;19.57;74.06;99370.63;5071732;28;20417;-56
2022/08/01 03:03:19;;;;;;;6.70;3.25;;;;;;;19.50;74.38;99367.47;5069573;28;20032;-55
2022/08/01 03:05:44;;;;;;;7.13;3.40;;;;;;;19.46;74.94;99366.44;5070439;28;20032;-55
2022/08/01 03:08:10;;;;;;;4.00;2.88;;;;;;;19.29;75.68;99383.31;5070581;28;20098;-55
2022/08/01 03:10:39;;;;;;;7.72;2.85;;;;;;;19.43;74.43;99375.22;5073122;28;20028;-57
2022/08/01 03:13:06;;;;;;;4.53;2.85;;;;;;;19.58;73.72;99374.94;5073956;28;20028;-57
2022/08/01 03:15:32;;;;;;;6.28;3.30;;;;;;;19.56;73.85;99373.63;5062772;28;20395;-56
2022/08/01 03:17:58;;;;;;;4.50;2.90;;;;;;;19.64;73.58;99380.28;5073351;28;20056;-57
2022/08/01 03:20:24;;;;;;;5.25;3.30;;;;;;;19.44;75.12;99376.81;5075090;28;20107;-57
2022/08/01 03:22:52;;;;;;;5.72;3.10;;;;;;;19.23;75.94;99386.41;5057425;28;20324;-56
2022/08/01 03:25:18;;;;;;;7.72;3.72;;;;;;;19.09;77.06;99387.13;5057552;28;20027;-57
2022/08/01 03:27:43;;;;;;;5.20;3.20;;;;;;;19.57;74.36;99384.22;5056694;28;20024;-56
2022/08/01 03:30:10;;;;;;;4.43;3.00;;;;;;;19.62;74.74;99377.88;5075345;28;20059;-57
2022/08/01 03:32:35;;;;;;;6.38;3.45;;;;;;;19.27;76.27;99387.41;5074673;28;20032;-55
2022/08/01 03:35:01;;;;;;;12.02;3.60;;;;;;;19.17;76.73;99388.41;5074453;28;20094;-56
2022/08/01 03:37:29;;;;;;;5.78;3.17;;;;;;;19.08;77.38;99385.53;5074856;28;20093;-56
2022/08/01 03:40:20;;;;;;;5.95;3.30;;;;;;;19.01;78.31;99382.38;5074473;28;20036;-56
2022/08/01 03:42:47;;;;;;;8.05;3.42;;;;;;;18.99;78.21;99387.28;5075796;28;20039;-57
2022/08/01 03:45:27;;;;;;;5.72;3.28;;;;;;;19.23;76.49;99383.69;5075699;28;20441;-56
2022/08/01 03:47:55;;;;;;;6.68;3.65;;;;;;;19.15;76.94;99387.88;5072793;28;20506;-57
2022/08/01 03:50:21;;;;;;;6.97;3.45;;;;;;;19.16;77.06;99382.16;5074416;28;20040;-57
2022/08/01 03:52:46;;;;;;;7.22;3.42;;;;;;;19.00;78.02;99388.94;5062734;28;20024;-56
2022/08/01 03:55:12;;;;;;;9.35;3.63;;;;;;;19.25;77.40;99390.44;5057450;28;20466;-56
2022/08/01 03:57:37;;;;;;;7.18;3.50;;;;;;;18.91;78.64;99380.63;5061850;28;20033;-57
2022/08/01 04:00:06;;;;;;;5.38;3.40;;;;;;;19.20;77.14;99387.00;5056453;28;20023;-55
2022/08/01 04:02:32;;;;;;;8.02;3.60;;;;;;;19.53;75.82;99388.63;5074322;28;20493;-57
2022/08/01 04:04:58;;;;;;;8.50;3.40;;;;;;;19.99;73.41;99390.56;5072777;28;20029;-57
2022/08/01 04:07:25;;;;;;;6.65;3.33;;;;;;;19.77;74.46;99391.25;5056145;28;20528;-56
2022/08/01 04:09:54;;;;;;;7.70;3.53;;;;;;;19.72;74.24;99391.34;5080813;28;20036;-56
2022/08/01 04:12:19;;;;;;;6.50;2.90;;;;;;;19.84;73.72;99390.84;5074377;28;20128;-57
2022/08/01 04:14:45;;;;;;;7.38;4.28;;;;;;;19.51;76.05;99385.38;5074129;28;20116;-57
2022/08/01 04:17:10;;;;;;;11.68;3.97;;;;;;;19.58;75.59;99393.97;5080474;28;20027;-56
2022/08/01 04:19:36;;;;;;;5.82;3.10;;;;;;;19.91;73.84;99393.16;5073493;28;20036;-55
2022/08/01 04:22:02;;;;;;;5.35;3.05;;;;;;;19.59;75.49;99394.78;5073335;28;20028;-56
2022/08/01 04:24:29;;;;;;;8.18;3.28;;;;;;;19.48;76.01;99405.03;5073453;28;20027;-58
2022/08/01 04:26:55;;;;;;;11.80;3.20;;;;;;;19.75;74.61;99403.53;5064693;28;20447;-58
2022/08/01 04:29:20;;;;;;;5.07;3.40;;;;;;;19.91;74.20;99406.75;5073498;28;20060;-57
2022/08/01 04:31:46;;;;;;;5.32;3.58;;;;;;;20.01;73.94;99412.81;5074095;28;20029;-57
2022/08/01 04:34:12;;;;;;;8.40;3.20;;;;;;;20.03;73.84;99418.78;5073044;28;20540;-56
2022/08/01 04:36:38;;;;;;;8.27;4.03;;;;;;;19.89;74.45;99414.41;5072803;28;20429;-57
2022/08/01 04:39:04;;;;;;;13.27;4.53;;;;;;;19.97;74.49;99422.69;5072260;28;20047;-57
2022/08/01 04:41:30;;;;;;;9.18;4.32;;;;;;;19.97;74.62;99421.91;5073948;28;20170;-57
2022/08/01 04:43:58;;;;;;;6.30;4.10;;;;;;;19.66;76.36;99416.16;5076312;28;20012;-58
2022/08/01 04:46:24;;;;;;;9.85;4.20;;;;;;;20.16;73.40;99425.31;5049982;28;20020;-57
2022/08/01 04:48:49;;;;;;;7.95;4.10;;;;;;;19.91;75.51;99423.88;5071578;28;20016;-55
2022/08/01 04:51:15;;;;;;;7.50;4.40;;;;;;;20.02;74.14;99429.97;5072001;28;20391;-57
2022/08/01 04:53:41;;;;;;;12.40;4.55;;;;;;;19.96;74.84;99431.16;5075332;28;20044;-57
2022/08/01 04:56:07;;;;;;;8.43;3.97;;;;;;;20.19;73.48;99440.25;5072513;28;20043;-56
2022/08/01 04:58:32;;;;;;;8.43;4.40;;;;;;;19.73;76.29;99430.19;5073133;28;20032;-57
2022/08/01 05:00:57;;;;;;;8.15;4.40;;;;;;;19.57;77.49;99429.63;5075684;28;20065;-55
2022/08/01 05:03:23;;;;;;;10.55;3.72;;;;;;;19.48;77.34;99434.91;5072344;28;20078;-55
2022/08/01 05:05:48;;;;;;;7.88;4.10;;;;;;;19.52;77.67;99433.22;5071885;28;20021;-56
2022/08/01 05:08:14;;;;;;;9.88;4.75;;;;;;;19.76;76.45;99429.59;5071688;28;20016;-56
2022/08/01 05:10:39;;;;;;;13.38;4.18;;;;;;;19.68;76.16;99424.84;5054922;28;20505;-57
2022/08/01 05:13:06;;;;;;;8.55;3.97;;;;;;;19.28;78.05;99421.66;5073053;28;20044;-56
2022/08/01 05:15:31;;;;;;;9.80;4.20;;;;;;;19.46;77.36;99412.66;5073068;28;20035;-56
2022/08/01 05:17:57;;;;;;;7.60;3.83;;;;;;;19.28;78.38;99422.47;5072308;28;20024;-57
2022/08/01 05:20:22;;;;;;;8.20;4.07;;;;;;;20.03;74.81;99421.50;5072831;28;20025;-60
2022/08/01 05:22:48;;;;;;;7.60;3.83;;;;;;;19.59;76.84;99425.50;5071904;28;20395;-56
2022/08/01 05:25:13;;;;;;;9.73;4.40;;;;;;;19.89;76.16;99436.97;5072867;28;20101;-56
2022/08/01 05:27:40;;;;;;;14.45;5.22;;;;;;;20.09;75.52;99435.00;5072743;28;20025;-56
2022/08/01 05:30:09;;;;;;;13.18;6.30;;;;;;;19.65;78.13;99439.00;5072671;28;20490;-57
2022/08/01 05:32:34;;;;;;;11.80;5.47;;;;;;;20.13;76.18;99441.47;5071795;28;20390;-56
2022/08/01 05:35:00;;;;;;;11.57;5.68;;;;;;;20.33;74.75;99443.00;5072088;28;20494;-56
2022/08/01 05:37:25;;;;;;;13.85;5.57;;;;;;;20.28;75.15;99441.16;5072851;28;20025;-57
2022/08/01 05:39:51;;;;;;;12.55;6.28;;;;;;;20.48;73.78;99438.03;5072421;28;20035;-57
2022/08/01 05:42:16;;;;;;;16.30;5.32;;;;;;;20.53;74.04;99437.13;5072245;28;20029;-55
2022/08/01 05:44:42;;;;;;;12.30;5.25;;;;;;;20.60;73.64;99434.06;5074659;28;20024;-54
2022/08/01 05:47:07;;;;;;;11.43;5.65;;;;;;;20.76;72.95;99440.78;5079341;28;20033;-57
2022/08/01 05:49:32;;;;;;;18.05;5.63;;;;;;;20.80;72.65;99444.50;5071901;28;20528;-56
2022/08/01 05:51:58;;;;;;;21.45;6.32;;;;;;;21.02;72.20;99432.06;5072185;28;20482;-55
2022/08/01 05:54:24;;;;;;;15.93;6.10;;;;;;;20.96;71.87;99439.53;5072426;28;20399;-56
2022/08/01 05:56:50;;;;;;;21.92;6.65;;;;;;;21.11;71.49;99441.09;5072247;28;20463;-56
2022/08/01 05:59:15;;;;;;;19.20;6.25;;;;;;;21.03;71.58;99447.28;5072298;28;20036;-57
2022/08/01 06:01:40;;;;;;;23.90;6.32;;;;;;;21.02;72.05;99440.25;5077863;28;20027;-55
2022/08/01 06:04:06;;;;;;;23.02;7.22;;;;;;;20.94;72.70;99449.13;5079406;28;20041;-58
2022/08/01 06:06:31;;;;;;;34.70;7.82;;;;;;;21.07;71.45;99453.75;5072288;28;20024;-57
2022/08/01 06:08:57;;;;;;;67.53;7.55;;;;;;;21.24;71.33;99455.81;5071951;28;20379;-57
2022/08/01 06:11:23;;;;;;;16.85;6.05;;;;;;;21.41;70.41;99460.63;5071087;28;20029;-57
2022/08/01 06:13:48;;;;;;;23.40;6.50;;;;;;;21.73;69.94;99457.66;5076286;28;20070;-56
2022/08/01 06:16:14;;;;;;;6.88;4.18;;;;;;;21.52;69.78;99462.00;5072125;28;20360;-56
2022/08/01 06:18:39;;;;;;;12.52;4.32;;;;;;;21.51;70.04;99457.66;5071271;28;20498;-57
2022/08/01 06:21:05;;;;;;;12.07;4.70;;;;;;;21.58;70.00;99463.50;5071860;28;20021;-57
2022/08/01 06:23:30;;;;;;;12.82;6.30;;;;;;;20.92;71.77;99462.22;5075903;28;20032;-57
2022/08/01 06:25:56;;;;;;;10.40;5.20;;;;;;;21.09;71.84;99454.22;5072951;28;20037;-58
2022/08/01 06:28:22;;;;;;;11.43;5.20;;;;;;;21.08;72.24;99460.81;5071751;28;20508;-57
2022/08/01 06:30:47;;;;;;;14.20;6.43;;;;;;;21.09;72.41;99467.84;5071894;28;20028;-57
2022/08/01 06:33:13;;;;;;;9.18;5.25;;;;;;;21.04;72.58;99467.97;5071181;28;20475;-57
2022/08/01 06:35:38;;;;;;;9.95;5.38;;;;;;;21.58;70.88;99465.41;5071946;28;20036;-57
2022/08/01 06:38:04;;;;;;;13.27;6.38;;;;;;;21.62;69.89;99467.22;5071765;28;20024;-57
2022/08/01 06:40:29;;;;;;;17.95;6.78;;;;;;;21.56;70.25;99470.38;5063817;28;20112;-57
2022/08/01 06:42:54;;;;;;;10.10;5.68;;;;;;;21.95;69.54;99467.75;5074121;28;20072;-57
2022/08/01 06:45:22;;;;;;;10.50;5.38;;;;;;;21.84;69.91;99465.59;5078531;28;20029;-56
2022/08/01 06:47:47;;;;;;;13.75;6.43;;;;;;;21.79;69.26;99460.25;5075157;28;20029;-56
2022/08/01 06:50:14;;;;;;;18.80;7.50;;;;;;;22.00;68.71;99463.28;5075669;28;20139;-56
2022/08/01 06:52:40;;;;;;;12.55;6.97;;;;;;;22.05;68.18;99461.22;5076212;28;20442;-56
2022/08/01 06:55:05;;;;;;;22.20;9.32;;;;;;;22.15;67.44;99460.94;5077735;28;20060;-56
2022/08/01 06:57:31;;;;;;;12.48;6.95;;;;;;;22.09;68.10;99467.69;5075417;28;20036;-56
2022/08/01 06:59:57;;;;;;;14.07;7.10;;;;;;;22.11;68.34;99467.34;5075580;28;20089;-56
2022/08/01 07:02:22;;;;;;;17.02;6.90;;;;;;;21.85;69.02;99469.94;5075541;28;20466;-56
2022/08/01 07:04:48;;;;;;;19.70;7.30;;;;;;;21.86;69.31;99471.53;5075559;28;20040;-56
2022/08/01 07:07:14;;;;;;;17.70;7.25;;;;;;;21.83;69.67;99466.72;5077131;28;20059;-58
2022/08/01 07:09:43;;;;;;;13.70;7.68;;;;;;;21.66;70.04;99470.13;5075190;28;20029;-58
2022/08/01 07:12:08;;;;;;;15.90;7.33;;;;;;;22.05;68.61;99476.81;5074074;28;20060;-57
2022/08/01 07:14:36;;;;;;;19.05;7.70;;;;;;;21.94;68.77;99471.59;5075048;28;20118;-56
2022/08/01 07:17:02;;;;;;;15.88;7.22;;;;;;;21.84;68.80;99466.41;5080404;28;20466;-56
2022/08/01 07:19:27;;;;;;;24.83;7.40;;;;;;;21.69;69.98;99473.06;5074523;28;20036;-57
2022/08/01 07:21:56;;;;;;;24.02;8.80;;;;;;;21.64;69.56;99469.63;5075372;28;20035;-58
2022/08/01 07:24:21;;;;;;;25.33;8.35;;;;;;;21.74;69.79;99472.94;5081588;28;20142;-57
2022/08/01 07:26:47;;;;;;;23.73;7.75;;;;;;;22.15;67.94;99466.41;5084813;28;20032;-58
2022/08/01 07:29:13;;;;;;;35.90;9.18;;;;;;;22.05;68.89;99474.88;5080323;28;20028;-57
2022/08/01 07:31:38;;;;;;;27.02;8.30;;;;;;;22.29;68.20;99471.00;5075097;28;20493;-57
2022/08/01 07:34:07;;;;;;;22.85;7.68;;;;;;;22.38;66.96;99466.38;5074254;28;20029;-58
2022/08/01 07:36:32;;;;;;;23.20;8.27;;;;;;;22.30;67.33;99473.41;5075053;28;20046;-56
2022/08/01 07:38:57;;;;;;;26.08;8.23;;;;;;;22.34;67.44;99468.13;5077858;28;20535;-55
2022/08/01 07:41:23;;;;;;;16.33;8.07;;;;;;;21.30;70.67;99471.75;5074583;28;20097;-56
2022/08/01 07:43:51;;;;;;;19.58;8.00;;;;;;;20.98;72.49;99471.94;5074813;28;20035;-57
2022/08/01 07:46:17;;;;;;;17.13;8.30;;;;;;;21.51;70.89;99474.03;5075246;28;20050;-56
2022/08/01 07:48:45;;;;;;;20.80;7.82;;;;;;;21.80;69.35;99472.78;5074293;28;20471;-57
2022/08/01 07:51:11;;;;;;;15.23;7.18;;;;;;;22.71;65.95;99476.94;5079977;28;20035;-57
2022/08/01 07:53:37;;;;;;;14.63;7.20;;;;;;;23.81;62.79;99473.06;5074444;28;20030;-57
2022/08/01 07:56:05;;;;;;;20.27;7.70;;;;;;;23.83;61.77;99472.72;5073534;28;20082;-57
2022/08/01 07:58:31;;;;;;;15.35;7.03;;;;;;;23.47;63.31;99471.94;5074280;28;20514;-55
2022/08/01 08:00:56;;;;;;;18.77;7.63;;;;;;;24.98;58.34;99479.03;5079745;28;20032;-58
2022/08/01 08:03:21;;;;;;;14.73;7.53;;;;;;;25.88;55.82;99478.84;5075495;28;20029;-58
2022/08/01 08:05:47;;;;;;;16.02;6.72;;;;;;;26.10;54.80;99483.16;5078148;28;20035;-57
2022/08/01 08:08:13;;;;;;;16.60;6.22;;;;;;;25.48;56.32;99477.41;5073285;28;20047;-58
2022/08/01 08:10:39;;;;;;;12.55;6.78;;;;;;;25.00;58.68;99478.72;5078755;28;20395;-57
2022/08/01 08:13:04;;;;;;;14.73;6.65;;;;;;;24.83;58.85;99484.31;5073601;28;20036;-57
2022/08/01 08:15:30;;;;;;;14.32;6.97;;;;;;;25.30;57.23;99484.19;5081586;28;20032;-57
2022/08/01 08:17:55;;;;;;;21.08;7.35;;;;;;;25.61;57.02;99484.56;5072562;28;20028;-57
2022/08/01 08:20:28;;;;;;;15.82;7.28;;;;;;;27.45;51.83;99472.13;5073757;28;20036;-58
2022/08/01 08:22:54;;;;;;;16.15;7.38;;;;;;;28.37;49.16;99484.06;5072770;28;20021;-56
2022/08/01 08:25:21;;;;;;;14.60;7.55;;;;;;;29.51;45.86;99476.84;5076553;28;20035;-56
2022/08/01 08:27:47;;;;;;;15.30;8.15;;;;;;;28.84;46.90;99474.97;5072750;28;20059;-56
2022/08/01 08:30:12;;;;;;;19.02;6.25;;;;;;;29.21;46.73;99475.44;5073707;28;20039;-56
2022/08/01 08:32:39;;;;;;;18.73;7.13;;;;;;;27.57;50.79;99469.31;5073608;28;20040;-58
2022/08/01 08:35:05;;;;;;;13.27;7.22;;;;;;;28.26;48.63;99470.00;5073589;28;20116;-56
2022/08/01 08:37:30;;;;;;;18.15;7.50;;;;;;;27.72;49.85;99463.06;5075657;28;20386;-57
2022/08/01 08:39:56;;;;;;;19.55;7.68;;;;;;;28.54;47.81;99469.94;5073637;28;20016;-55
2022/08/01 08:42:21;;;;;;;21.15;7.38;;;;;;;28.92;46.70;99467.66;5072208;28;20547;-55
2022/08/01 08:44:47;;;;;;;32.15;8.15;;;;;;;27.12;50.85;99473.09;5073563;28;20024;-56
2022/08/01 08:47:13;;;;;;;15.65;6.18;;;;;;;29.22;45.48;99484.50;5072816;28;20471;-57
2022/08/01 08:49:38;;;;;;;9.45;6.15;;;;;;;29.21;44.65;99478.19;5076885;28;20604;-55
2022/08/01 08:52:04;;;;;;;16.50;6.50;;;;;;;26.99;51.09;99468.78;5074893;28;20055;-55
2022/08/01 08:54:30;;;;;;;19.02;6.95;;;;;;;26.26;53.17;99475.88;5072118;28;20490;-56
2022/08/01 08:56:55;;;;;;;25.30;7.75;;;;;;;26.36;52.80;99480.09;5073343;28;20044;-56
2022/08/01 08:59:21;;;;;;;13.35;7.55;;;;;;;25.71;54.48;99479.78;5074344;28;20039;-56
2022/08/01 09:01:47;;;;;;;18.90;8.43;;;;;;;24.35;56.92;99482.72;5073067;28;20039;-56
2022/08/01 09:04:12;;;;;;;22.27;8.00;;;;;;;25.47;55.27;99473.06;5056409;28;20544;-56
2022/08/01 09:06:38;;;;;;;19.75;7.75;;;;;;;26.55;51.91;99465.81;5073119;28;20054;-56
2022/08/01 09:09:07;;;;;;;14.05;7.15;;;;;;;26.97;50.20;99462.81;5073060;28;20064;-55
2022/08/01 09:11:33;;;;;;;31.02;8.20;;;;;;;26.84;52.32;99465.59;5071441;28;20033;-55
2022/08/01 09:14:05;;;;;;;24.23;8.25;;;;;;;25.82;55.06;99467.25;5070158;28;20024;-59
2022/08/01 09:16:31;;;;;;;18.70;7.80;;;;;;;27.56;49.63;99475.16;5070391;28;20482;-57
2022/08/01 09:19:17;;;;;;;14.98;7.38;;;;;;;28.36;48.71;99463.16;5069322;28;20042;-57
2022/08/01 09:22:04;;;;;;;40.20;8.45;;;;;;;27.18;50.41;99471.72;5068801;28;20024;-56
2022/08/01 09:24:30;;;;;;;21.13;8.15;;;;;;;26.31;52.27;99470.16;5069907;28;20591;-56
2022/08/01 09:26:55;;;;;;;24.65;8.00;;;;;;;26.77;50.52;99473.59;5071043;28;20032;-56
2022/08/01 09:29:31;;;;;;;17.95;7.72;;;;;;;25.97;52.76;99469.38;5072334;28;20039;-56
2022/08/01 09:31:59;;;;;;;16.23;7.72;;;;;;;24.62;55.91;99470.56;5067676;28;20075;-56
2022/08/01 09:34:29;;;;;;;15.82;7.32;;;;;;;25.66;54.27;99475.34;5069463;28;20103;-56
2022/08/01 09:36:56;;;;;;;32.15;8.50;;;;;;;24.84;56.85;99477.69;5069946;28;20104;-56
2022/08/01 09:39:24;;;;;;;21.85;7.53;;;;;;;25.30;55.87;99475.97;5072084;28;20658;-57
2022/08/01 09:41:49;;;;;;;21.17;8.85;;;;;;;24.52;57.44;99471.72;5076154;28;20482;-56
2022/08/01 09:44:17;;;;;;;25.67;9.60;;;;;;;24.44;58.06;99481.56;5070205;28;20619;-56
2022/08/01 09:47:09;;;;;;;18.52;9.15;;;;;;;24.54;58.11;99475.75;5055428;28;20345;-56
2022/08/01 09:49:36;;;;;;;17.20;8.50;;;;;;;24.10;59.16;99480.53;5066646;28;20033;-55
2022/08/01 09:52:17;;;;;;;27.08;8.82;;;;;;;24.02;59.70;99475.09;5069531;28;20037;-57
2022/08/01 09:54:44;;;;;;;22.15;8.43;;;;;;;24.83;57.61;99476.06;5074695;28;20666;-56
2022/08/01 09:57:17;;;;;;;17.88;8.88;;;;;;;25.98;54.23;99472.94;5069606;28;20041;-56
2022/08/01 09:59:44;;;;;;;15.02;7.63;;;;;;;28.22;48.24;99474.63;5070659;28;20039;-57
2022/08/01 10:02:13;;;;;;;15.18;7.75;;;;;;;27.96;47.71;99477.91;5068381;28;20032;-56
2022/08/01 10:04:46;;;;;;;18.83;7.37;;;;;;;27.68;48.16;99489.72;5069223;28;20041;-56
2022/08/01 10:07:13;;;;;;;13.02;6.85;;;;;;;27.86;47.70;99481.16;5068275;28;20289;-57
2022/08/01 10:09:39;;;;;;;14.95;7.13;;;;;;;27.86;47.48;99478.41;5072718;28;20020;-57
2022/08/01 10:12:05;;;;;;;12.80;7.25;;;;;;;27.22;48.33;99477.34;5068418;28;20021;-57
2022/08/01 10:14:30;;;;;;;19.13;7.30;;;;;;;27.99;47.91;99479.94;5075525;28;20529;-56
2022/08/01 10:16:57;;;;;;;15.65;6.72;;;;;;;28.33;46.18;99483.97;5069776;28;20031;-55
2022/08/01 10:19:27;;;;;;;16.50;7.55;;;;;;;27.58;47.48;99479.16;5069923;28;20494;-55
2022/08/01 10:21:53;;;;;;;17.45;7.03;;;;;;;28.22;47.13;99484.84;5070743;28;20032;-56
2022/08/01 10:24:20;;;;;;;19.20;7.43;;;;;;;28.04;47.97;99478.88;5070303;28;20107;-56
2022/08/01 10:26:47;;;;;;;19.27;7.78;;;;;;;27.16;48.94;99476.78;5071951;28;20029;-55
2022/08/01 10:29:13;;;;;;;17.20;8.88;;;;;;;26.79;51.49;99465.81;5071905;28;20070;-55
2022/08/01 10:31:38;;;;;;;30.40;9.60;;;;;;;27.38;50.03;99469.16;5071079;28;20024;-56
2022/08/01 10:34:04;;;;;;;19.35;8.10;;;;;;;27.32;49.96;99458.41;5072769;28;20474;-55
2022/08/01 10:36:29;;;;;;;21.98;9.75;;;;;;;27.61;49.43;99466.66;5070710;28;20029;-56
2022/08/01 10:38:55;;;;;;;20.90;7.97;;;;;;;27.42;49.33;99459.06;5063747;28;20035;-58
2022/08/01 10:41:21;;;;;;;24.95;9.55;;;;;;;26.78;51.10;99463.41;5071771;28;20386;-55
2022/08/01 10:43:46;;;;;;;17.30;8.20;;;;;;;26.27;52.03;99469.22;5071621;28;20043;-55
2022/08/01 10:46:11;;;;;;;26.50;8.27;;;;;;;25.77;53.72;99461.97;5071972;28;20090;-55
2022/08/01 10:48:56;;;;;;;17.90;8.27;;;;;;;25.98;52.85;99460.00;5070098;28;20119;-55
2022/08/01 10:51:22;;;;;;;17.15;7.93;;;;;;;26.27;51.84;99454.69;5073998;28;20039;-56
2022/08/01 10:53:52;;;;;;;13.63;7.97;;;;;;;25.84;53.75;99454.00;5070064;28;20028;-56
2022/08/01 10:56:17;;;;;;;12.68;8.10;;;;;;;25.79;53.66;99455.00;5070574;28;20032;-56
2022/08/01 10:58:43;;;;;;;22.98;8.35;;;;;;;25.53;53.40;99460.75;5071974;28;20021;-57
2022/08/01 11:01:19;;;;;;;20.50;8.07;;;;;;;25.53;53.26;99459.94;5070394;28;20059;-57
2022/08/01 11:03:58;;;;;;;23.45;9.23;;;;;;;25.17;54.86;99464.91;5070602;28;20101;-57
2022/08/01 11:06:35;;;;;;;23.38;8.52;;;;;;;25.47;53.76;99456.59;5071771;28;20025;-57
2022/08/01 11:09:06;;;;;;;19.13;8.70;;;;;;;25.77;52.85;99448.25;5070764;28;20035;-56
2022/08/01 11:11:31;;;;;;;20.17;8.48;;;;;;;25.91;52.22;99451.53;5070373;28;20055;-56
2022/08/01 11:14:01;;;;;;;24.08;9.35;;;;;;;25.50;53.86;99466.09;5070149;28;20467;-56
2022/08/01 11:16:30;;;;;;;22.27;9.13;;;;;;;25.27;54.91;99468.41;5071534;28;20027;-56
2022/08/01 11:18:56;;;;;;;26.45;9.82;;;;;;;25.33;54.81;99464.31;5071147;28;20114;-55
2022/08/01 11:21:23;;;;;;;19.90;9.98;;;;;;;25.45;54.89;99469.84;5071343;28;20463;-55
2022/08/01 11:23:51;;;;;;;24.40;9.73;;;;;;;25.39;54.27;99462.97;5086908;28;20233;-57
2022/08/01 11:26:17;;;;;;;17.05;9.10;;;;;;;25.49;54.16;99465.31;5071324;28;20039;-56
2022/08/01 11:28:44;;;;;;;18.48;8.55;;;;;;;25.38;53.90;99464.09;5071276;28;20021;-56